Time;durP1;ratioP1;P1;durP2;ratioP2;P2;SDS_P1;SDS_P2;PMS_P1;PMS_P2;Temp;Humidity;BMP_temperature;BMP_pressure;BME280_temperature;BME280_humidity;BME280_pressure;Samples;Min_cycle;Max_cycle;Signal;HPM_P1;HPM_P2
2022/12/31 00:02:13;;;;;;;0.80;0.80;;;;;;;;;;4974232;28;20019;-77
2022/12/31 00:04:41;;;;;;;0.70;0.70;;;;;;;;;;4977885;28;20487;-76
2022/12/31 00:07:07;;;;;;;0.70;0.70;;;;;;;;;;4970821;28;20023;-76
2022/12/31 00:09:32;;;;;;;0.70;0.70;;;;;;;;;;4972471;28;20102;-76
2022/12/31 00:12:00;;;;;;;2.45;1.25;;;;;;;;;;4970055;28;20046;-76
2022/12/31 00:14:27;;;;;;;1.77;0.80;;;;;;;;;;4970849;28;20030;-76
2022/12/31 00:16:52;;;;;;;0.90;0.90;;;;;;;;;;4956708;28;20094;-78
2022/12/31 00:19:17;;;;;;;0.70;0.60;;;;;;;;;;4967807;28;20082;-76
2022/12/31 00:21:48;;;;;;;0.77;0.77;;;;;;;;;;4968673;28;20038;-77
2022/12/31 00:24:15;;;;;;;0.50;0.47;;;;;;;;;;4984410;28;20030;-76
2022/12/31 00:26:46;;;;;;;3.53;0.90;;;;;;;;;;4970713;28;20033;-77
2022/12/31 00:29:13;;;;;;;0.90;0.70;;;;;;;;;;4971209;28;20019;-76
2022/12/31 00:31:39;;;;;;;0.70;0.70;;;;;;;;;;4971370;28;20023;-77
2022/12/31 00:34:05;;;;;;;1.30;0.63;;;;;;;;;;4974758;28;20121;-77
2022/12/31 00:36:36;;;;;;;2.60;1.00;;;;;;;;;;4975650;28;20026;-76
2022/12/31 00:39:07;;;;;;;1.58;0.90;;;;;;;;;;4974996;28;20027;-76
2022/12/31 00:41:33;;;;;;;1.85;1.00;;;;;;;;;;4974085;28;20030;-76
2022/12/31 00:43:59;;;;;;;0.93;0.80;;;;;;;;;;4975415;28;20050;-75
2022/12/31 00:46:25;;;;;;;1.23;1.00;;;;;;;;;;4977523;28;20019;-76
2022/12/31 00:48:53;;;;;;;0.75;0.75;;;;;;;;;;4991554;28;20015;-75
2022/12/31 00:51:21;;;;;;;1.65;0.80;;;;;;;;;;4991841;28;20022;-76
2022/12/31 00:53:47;;;;;;;1.40;0.80;;;;;;;;;;4993454;28;20019;-76
2022/12/31 00:56:24;;;;;;;1.23;0.65;;;;;;;;;;4971181;28;20429;-77
2022/12/31 00:58:49;;;;;;;0.93;0.85;;;;;;;;;;4975425;28;20041;-77
2022/12/31 01:01:19;;;;;;;3.58;0.77;;;;;;;;;;4971343;28;20113;-76
2022/12/31 01:03:47;;;;;;;1.00;0.85;;;;;;;;;;4974251;28;20027;-76
2022/12/31 01:06:13;;;;;;;1.15;0.95;;;;;;;;;;4990089;28;20549;-76
2022/12/31 01:08:41;;;;;;;1.95;0.90;;;;;;;;;;4974471;28;20105;-77
2022/12/31 01:11:18;;;;;;;2.28;0.80;;;;;;;;;;4973577;28;20023;-77
2022/12/31 01:13:52;;;;;;;2.05;0.70;;;;;;;;;;4986480;28;20062;-77
2022/12/31 01:16:21;;;;;;;0.63;0.60;;;;;;;;;;4974757;28;20113;-77
2022/12/31 01:18:47;;;;;;;1.10;0.60;;;;;;;;;;4972184;28;20513;-76
2022/12/31 01:21:16;;;;;;;1.00;0.73;;;;;;;;;;4975465;28;20030;-77
2022/12/31 01:23:41;;;;;;;0.88;0.82;;;;;;;;;;4974272;28;20026;-77
2022/12/31 01:26:10;;;;;;;0.77;0.77;;;;;;;;;;4982931;28;20111;-78
2022/12/31 01:28:35;;;;;;;1.45;0.73;;;;;;;;;;4966686;28;20026;-78
2022/12/31 01:31:06;;;;;;;1.10;0.70;;;;;;;;;;4973218;28;20085;-76
2022/12/31 01:33:32;;;;;;;0.80;0.70;;;;;;;;;;4967789;28;20082;-76
2022/12/31 01:36:07;;;;;;;1.27;0.80;;;;;;;;;;4986373;28;20030;-76
2022/12/31 01:38:34;;;;;;;1.02;0.70;;;;;;;;;;4983004;28;20027;-76
2022/12/31 01:41:01;;;;;;;1.00;0.73;;;;;;;;;;4983423;28;20035;-77
2022/12/31 01:43:59;;;;;;;0.80;0.70;;;;;;;;;;4979673;28;20038;-76
2022/12/31 01:46:32;;;;;;;0.73;0.70;;;;;;;;;;4978044;28;20409;-76
2022/12/31 01:49:38;;;;;;;1.48;0.70;;;;;;;;;;4975956;28;20023;-76
2022/12/31 01:52:19;;;;;;;0.73;0.70;;;;;;;;;;4975108;28;20066;-76
2022/12/31 01:55:01;;;;;;;1.88;0.80;;;;;;;;;;4975629;28;20109;-77
2022/12/31 01:57:26;;;;;;;1.42;0.80;;;;;;;;;;4975094;28;20100;-77
2022/12/31 01:59:54;;;;;;;1.33;1.05;;;;;;;;;;4974163;28;20514;-77
2022/12/31 02:02:23;;;;;;;0.93;0.85;;;;;;;;;;4972757;28;20023;-77
2022/12/31 02:04:51;;;;;;;1.42;0.77;;;;;;;;;;4975268;28;20397;-76
2022/12/31 02:07:19;;;;;;;1.05;1.00;;;;;;;;;;4973692;28;20046;-75
2022/12/31 02:09:47;;;;;;;2.25;0.90;;;;;;;;;;4969133;28;20495;-77
2022/12/31 02:12:12;;;;;;;0.90;0.90;;;;;;;;;;4973156;28;20441;-77
2022/12/31 02:14:42;;;;;;;2.40;0.80;;;;;;;;;;4972406;28;20022;-76
2022/12/31 02:17:45;;;;;;;1.00;1.00;;;;;;;;;;4972628;28;20030;-75
2022/12/31 02:20:14;;;;;;;2.22;0.80;;;;;;;;;;4983759;28;20027;-76
2022/12/31 02:23:05;;;;;;;2.58;0.90;;;;;;;;;;4970807;28;20061;-76
2022/12/31 02:25:30;;;;;;;0.73;0.70;;;;;;;;;;4970640;28;20042;-75
2022/12/31 02:28:23;;;;;;;1.30;0.73;;;;;;;;;;4972447;28;20366;-76
2022/12/31 02:30:54;;;;;;;3.65;0.70;;;;;;;;;;4971704;28;20722;-76
2022/12/31 02:33:30;;;;;;;2.20;0.85;;;;;;;;;;4971209;28;20035;-76
2022/12/31 02:36:01;;;;;;;1.50;0.98;;;;;;;;;;4970580;28;20030;-76
2022/12/31 02:38:31;;;;;;;0.85;0.80;;;;;;;;;;4972838;28;20027;-77
2022/12/31 02:40:59;;;;;;;0.80;0.70;;;;;;;;;;4969093;28;20512;-77
2022/12/31 02:43:25;;;;;;;0.85;0.85;;;;;;;;;;4965135;28;20031;-75
2022/12/31 02:46:00;;;;;;;0.65;0.65;;;;;;;;;;4966269;28;20552;-77
2022/12/31 02:48:38;;;;;;;1.65;0.88;;;;;;;;;;4969663;28;20478;-78
2022/12/31 02:51:12;;;;;;;1.02;0.70;;;;;;;;;;4971252;28;20039;-77
2022/12/31 02:53:40;;;;;;;2.35;0.90;;;;;;;;;;4966886;28;20031;-78
2022/12/31 02:56:41;;;;;;;0.70;0.70;;;;;;;;;;4972500;28;20034;-77
2022/12/31 03:02:13;;;;;;;1.45;0.80;;;;;;;;;;4972250;28;20041;-76
2022/12/31 03:04:44;;;;;;;1.40;0.82;;;;;;;;;;4972592;28;20040;-78
2022/12/31 03:07:17;;;;;;;1.05;0.70;;;;;;;;;;4972181;28;20042;-77
2022/12/31 03:09:42;;;;;;;2.92;1.35;;;;;;;;;;4972826;28;20041;-76
2022/12/31 03:14:57;;;;;;;2.28;0.80;;;;;;;;;;4970622;28;20038;-77
2022/12/31 03:17:28;;;;;;;2.67;0.65;;;;;;;;;;4972509;28;20038;-77
2022/12/31 03:22:40;;;;;;;0.90;0.80;;;;;;;;;;4968293;28;20049;-78
2022/12/31 03:28:26;;;;;;;1.13;0.70;;;;;;;;;;4975764;28;20097;-77
2022/12/31 03:30:55;;;;;;;1.60;0.68;;;;;;;;;;4978792;28;20397;-77
2022/12/31 03:33:23;;;;;;;0.98;0.73;;;;;;;;;;4971180;28;20085;-77
2022/12/31 03:35:50;;;;;;;2.28;0.90;;;;;;;;;;4970864;28;20073;-77
2022/12/31 03:38:17;;;;;;;1.38;0.60;;;;;;;;;;4970229;28;20081;-77
2022/12/31 03:40:45;;;;;;;0.50;0.50;;;;;;;;;;4967223;28;20039;-77
2022/12/31 03:43:11;;;;;;;1.85;0.60;;;;;;;;;;4968683;28;20389;-76
2022/12/31 03:45:37;;;;;;;0.65;0.60;;;;;;;;;;4970871;28;20027;-77
2022/12/31 03:48:04;;;;;;;0.80;0.80;;;;;;;;;;4969543;28;20062;-76
2022/12/31 03:50:30;;;;;;;1.05;0.70;;;;;;;;;;4964524;28;20030;-77
2022/12/31 03:52:56;;;;;;;0.70;0.70;;;;;;;;;;4969533;28;20481;-76
2022/12/31 03:55:26;;;;;;;0.50;0.50;;;;;;;;;;4970856;28;20029;-76
2022/12/31 03:57:52;;;;;;;0.60;0.60;;;;;;;;;;4966080;28;20031;-76
2022/12/31 04:00:21;;;;;;;0.80;0.80;;;;;;;;;;4970959;28;20045;-77
2022/12/31 04:02:50;;;;;;;1.20;0.70;;;;;;;;;;4967946;28;20026;-76
2022/12/31 04:05:18;;;;;;;0.67;0.67;;;;;;;;;;4971567;28;20038;-76
2022/12/31 04:07:44;;;;;;;0.67;0.60;;;;;;;;;;4970496;28;20033;-77
2022/12/31 04:10:16;;;;;;;1.98;0.70;;;;;;;;;;4982300;28;20270;-74
2022/12/31 04:12:42;;;;;;;0.60;0.60;;;;;;;;;;4970735;28;20410;-75
2022/12/31 04:15:15;;;;;;;1.52;0.70;;;;;;;;;;4963025;28;20030;-77
2022/12/31 04:17:40;;;;;;;0.95;0.80;;;;;;;;;;4969693;28;20101;-77
2022/12/31 04:20:06;;;;;;;0.57;0.57;;;;;;;;;;4983021;28;20452;-77
2022/12/31 04:22:31;;;;;;;1.48;0.70;;;;;;;;;;4966429;28;20038;-76
2022/12/31 04:24:57;;;;;;;0.57;0.57;;;;;;;;;;4969260;28;20401;-76
2022/12/31 04:27:22;;;;;;;0.77;0.73;;;;;;;;;;4965129;28;20090;-77
2022/12/31 04:29:48;;;;;;;0.73;0.70;;;;;;;;;;4968501;28;20035;-77
2022/12/31 04:32:13;;;;;;;0.60;0.60;;;;;;;;;;4969124;28;20031;-77
2022/12/31 04:34:38;;;;;;;2.15;1.00;;;;;;;;;;4972174;28;20027;-77
2022/12/31 04:37:06;;;;;;;1.00;0.90;;;;;;;;;;4971570;28;20023;-77
2022/12/31 04:39:34;;;;;;;2.05;0.60;;;;;;;;;;4962175;28;20033;-76
2022/12/31 04:42:07;;;;;;;1.70;0.77;;;;;;;;;;4970163;28;20379;-76
2022/12/31 04:44:33;;;;;;;1.02;0.70;;;;;;;;;;4973412;28;20286;-76
2022/12/31 04:46:59;;;;;;;0.60;0.60;;;;;;;;;;4973163;28;20030;-76
2022/12/31 04:49:24;;;;;;;0.68;0.68;;;;;;;;;;4973667;28;20019;-76
2022/12/31 04:51:52;;;;;;;0.80;0.70;;;;;;;;;;4987665;28;20034;-76
2022/12/31 04:54:22;;;;;;;0.70;0.70;;;;;;;;;;4973077;28;20026;-77
2022/12/31 04:56:47;;;;;;;0.75;0.70;;;;;;;;;;4987060;28;20031;-76
2022/12/31 04:59:13;;;;;;;0.68;0.68;;;;;;;;;;4971534;28;20035;-77
2022/12/31 05:01:38;;;;;;;0.85;0.80;;;;;;;;;;4971850;28;20540;-76
2022/12/31 05:04:06;;;;;;;0.60;0.60;;;;;;;;;;4966512;28;20027;-77
2022/12/31 05:06:32;;;;;;;0.73;0.70;;;;;;;;;;4969601;28;20053;-76
2022/12/31 05:08:57;;;;;;;2.95;0.88;;;;;;;;;;4969014;28;20440;-77
2022/12/31 05:11:23;;;;;;;1.17;0.60;;;;;;;;;;4969972;28;20105;-76
2022/12/31 05:13:50;;;;;;;1.77;0.90;;;;;;;;;;4970007;28;20070;-77
2022/12/31 05:16:16;;;;;;;1.92;1.00;;;;;;;;;;4970943;28;20489;-77
2022/12/31 05:18:41;;;;;;;0.73;0.73;;;;;;;;;;4968647;28;20043;-77
2022/12/31 05:21:18;;;;;;;1.42;0.70;;;;;;;;;;4969919;28;20038;-77
2022/12/31 05:23:43;;;;;;;0.80;0.80;;;;;;;;;;4965748;28;20482;-78
2022/12/31 05:26:13;;;;;;;0.77;0.70;;;;;;;;;;4969856;28;20127;-75
2022/12/31 05:28:39;;;;;;;0.65;0.65;;;;;;;;;;4964241;28;20031;-76
2022/12/31 05:31:06;;;;;;;1.05;0.88;;;;;;;;;;4983893;28;20030;-76
2022/12/31 05:33:35;;;;;;;1.17;1.08;;;;;;;;;;4965859;28;20031;-77
2022/12/31 05:36:02;;;;;;;1.27;0.60;;;;;;;;;;4970228;28;20027;-77
2022/12/31 05:38:28;;;;;;;1.42;0.80;;;;;;;;;;4969704;28;20487;-77
2022/12/31 05:41:05;;;;;;;0.73;0.73;;;;;;;;;;4969315;28;20050;-77
2022/12/31 05:43:33;;;;;;;1.75;0.80;;;;;;;;;;4967612;28;20291;-77
2022/12/31 05:46:03;;;;;;;0.77;0.77;;;;;;;;;;4970831;28;20105;-77
2022/12/31 05:48:31;;;;;;;0.85;0.80;;;;;;;;;;4973197;28;20089;-77
2022/12/31 05:50:57;;;;;;;1.00;0.90;;;;;;;;;;4970251;28;20054;-77
2022/12/31 05:53:24;;;;;;;0.90;0.80;;;;;;;;;;4971058;28;20061;-76
2022/12/31 05:55:50;;;;;;;2.05;0.98;;;;;;;;;;4963366;28;20027;-77
2022/12/31 05:58:15;;;;;;;1.00;0.90;;;;;;;;;;4971778;28;20035;-77
2022/12/31 06:00:41;;;;;;;0.70;0.70;;;;;;;;;;4972219;28;20043;-77
2022/12/31 06:03:07;;;;;;;1.48;0.90;;;;;;;;;;4970144;28;20034;-77
2022/12/31 06:05:34;;;;;;;0.77;0.70;;;;;;;;;;4972417;28;20089;-77
2022/12/31 06:08:00;;;;;;;0.90;0.90;;;;;;;;;;4968510;28;20102;-79
2022/12/31 06:10:25;;;;;;;2.53;0.85;;;;;;;;;;4973892;28;20126;-79
2022/12/31 06:12:53;;;;;;;0.70;0.70;;;;;;;;;;4973263;28;20027;-77
2022/12/31 06:15:19;;;;;;;1.38;0.90;;;;;;;;;;4976458;28;20030;-78
2022/12/31 06:17:44;;;;;;;0.70;0.70;;;;;;;;;;4968414;28;20031;-77
2022/12/31 06:20:10;;;;;;;2.08;0.90;;;;;;;;;;4974678;28;20033;-79
2022/12/31 06:22:35;;;;;;;3.95;1.48;;;;;;;;;;4971536;28;20592;-79
2022/12/31 06:25:01;;;;;;;0.85;0.68;;;;;;;;;;4970576;28;20031;-78
2022/12/31 06:27:26;;;;;;;1.10;0.70;;;;;;;;;;4971388;28;20486;-79
2022/12/31 06:29:51;;;;;;;0.73;0.73;;;;;;;;;;4989386;28;20086;-78
2022/12/31 06:32:17;;;;;;;0.80;0.80;;;;;;;;;;4989897;28;20022;-79
2022/12/31 06:34:42;;;;;;;0.82;0.63;;;;;;;;;;4973797;28;20034;-78
2022/12/31 06:37:07;;;;;;;0.80;0.77;;;;;;;;;;4964794;28;20393;-77
2022/12/31 06:39:33;;;;;;;0.77;0.77;;;;;;;;;;4973826;28;20057;-77
2022/12/31 06:42:01;;;;;;;1.27;0.88;;;;;;;;;;4973324;28;20027;-78
2022/12/31 06:44:26;;;;;;;2.58;0.68;;;;;;;;;;4971501;28;20027;-78
2022/12/31 06:46:54;;;;;;;0.90;0.80;;;;;;;;;;4973980;28;20081;-76
2022/12/31 06:49:19;;;;;;;0.90;0.80;;;;;;;;;;4974607;28;20250;-78
2022/12/31 06:51:46;;;;;;;1.85;0.80;;;;;;;;;;4970994;28;20038;-77
2022/12/31 06:54:14;;;;;;;1.42;0.80;;;;;;;;;;4975114;28;20463;-78
2022/12/31 06:56:40;;;;;;;2.50;1.00;;;;;;;;;;4988848;28;20030;-78
2022/12/31 06:59:14;;;;;;;0.98;0.90;;;;;;;;;;4973026;28;20018;-77
2022/12/31 07:02:05;;;;;;;1.65;1.10;;;;;;;;;;4970767;28;20397;-77
2022/12/31 07:04:55;;;;;;;2.70;1.17;;;;;;;;;;4988997;28;20034;-79
2022/12/31 07:07:33;;;;;;;1.27;1.10;;;;;;;;;;4967597;28;20027;-78
2022/12/31 07:10:29;;;;;;;1.00;1.00;;;;;;;;;;4969797;28;20047;-77
2022/12/31 07:13:04;;;;;;;1.38;0.90;;;;;;;;;;4968143;28;20084;-77
2022/12/31 07:15:40;;;;;;;2.03;0.88;;;;;;;;;;4972512;28;20033;-77
2022/12/31 07:18:21;;;;;;;0.80;0.80;;;;;;;;;;4972124;28;20026;-77
2022/12/31 07:20:47;;;;;;;2.40;0.90;;;;;;;;;;4970796;28;20034;-77
2022/12/31 07:23:13;;;;;;;1.92;1.05;;;;;;;;;;4969146;28;20023;-80
2022/12/31 07:25:45;;;;;;;1.55;0.85;;;;;;;;;;4970724;28;20027;-79
2022/12/31 07:28:51;;;;;;;1.70;0.70;;;;;;;;;;4969589;28;20081;-79
2022/12/31 07:31:40;;;;;;;1.45;1.00;;;;;;;;;;4967075;28;20042;-79
2022/12/31 07:34:27;;;;;;;1.48;1.10;;;;;;;;;;4970420;28;20386;-79
2022/12/31 07:37:02;;;;;;;0.90;0.90;;;;;;;;;;4973116;28;20046;-78
2022/12/31 07:39:44;;;;;;;1.20;1.08;;;;;;;;;;4973890;28;20034;-78
2022/12/31 07:42:21;;;;;;;1.40;1.10;;;;;;;;;;4971101;28;20084;-79
2022/12/31 07:45:06;;;;;;;2.35;1.80;;;;;;;;;;4973215;28;20065;-80
2022/12/31 07:47:32;;;;;;;1.95;1.70;;;;;;;;;;4972057;28;20030;-78
2022/12/31 07:49:57;;;;;;;2.67;1.73;;;;;;;;;;4965265;28;20531;-77
2022/12/31 07:52:24;;;;;;;2.47;1.30;;;;;;;;;;4970514;28;20023;-79
2022/12/31 07:54:52;;;;;;;1.17;1.08;;;;;;;;;;4970448;28;20039;-79
2022/12/31 07:57:24;;;;;;;1.58;1.00;;;;;;;;;;4972762;28;20033;-77
2022/12/31 07:59:52;;;;;;;1.27;1.17;;;;;;;;;;4988068;28;20393;-78
2022/12/31 08:02:31;;;;;;;3.42;1.10;;;;;;;;;;4972412;28;20034;-77
2022/12/31 08:05:05;;;;;;;1.43;1.00;;;;;;;;;;4972074;28;20035;-79
2022/12/31 08:07:39;;;;;;;0.88;0.85;;;;;;;;;;4969271;28;20121;-77
2022/12/31 08:10:22;;;;;;;1.60;1.30;;;;;;;;;;4969315;28;20042;-75
2022/12/31 08:12:59;;;;;;;3.38;1.33;;;;;;;;;;4971074;28;20030;-78
2022/12/31 08:15:25;;;;;;;2.08;1.35;;;;;;;;;;4985025;28;20471;-77
2022/12/31 08:17:51;;;;;;;1.63;1.20;;;;;;;;;;4971539;28;20022;-76
2022/12/31 08:20:19;;;;;;;4.20;1.17;;;;;;;;;;4979865;28;20165;-79
2022/12/31 08:23:00;;;;;;;1.65;1.42;;;;;;;;;;4968956;28;20027;-79
2022/12/31 08:26:09;;;;;;;1.70;1.00;;;;;;;;;;4970295;28;20022;-80
2022/12/31 08:28:34;;;;;;;;;;;;;;;;;;4968000;28;20058;-78
2022/12/31 08:31:04;;;;;;;1.48;0.95;;;;;;;;;;4974242;28;20365;-80
2022/12/31 08:33:40;;;;;;;;;;;;;;;;;;4968038;28;20055;-80
2022/12/31 08:36:28;;;;;;;1.15;0.93;;;;;;;;;;4971279;28;19922;-80
2022/12/31 08:39:05;;;;;;;1.08;0.90;;;;;;;;;;4974278;28;20077;-80
2022/12/31 08:41:41;;;;;;;0.73;0.70;;;;;;;;;;4965646;28;20525;-81
2022/12/31 08:44:29;;;;;;;1.08;0.98;;;;;;;;;;4970851;28;20038;-78
2022/12/31 08:47:21;;;;;;;2.55;1.60;;;;;;;;;;4971339;28;20023;-78
2022/12/31 08:49:49;;;;;;;1.33;1.00;;;;;;;;;;4970013;28;20054;-79
2022/12/31 08:52:22;;;;;;;1.30;0.90;;;;;;;;;;4970570;28;20101;-79
2022/12/31 08:54:47;;;;;;;1.25;0.80;;;;;;;;;;4989201;28;20034;-80
2022/12/31 08:57:25;;;;;;;0.80;0.80;;;;;;;;;;4976277;28;20086;-78
2022/12/31 09:00:06;;;;;;;1.42;0.82;;;;;;;;;;4983025;28;20278;-80
2022/12/31 09:02:46;;;;;;;1.00;0.80;;;;;;;;;;4971856;28;20038;-80
2022/12/31 09:05:44;;;;;;;1.20;0.80;;;;;;;;;;4967366;28;20039;-80
2022/12/31 09:08:31;;;;;;;1.33;0.90;;;;;;;;;;4967595;28;20061;-80
2022/12/31 09:11:15;;;;;;;1.40;1.10;;;;;;;;;;4965298;28;20055;-78
2022/12/31 09:14:08;;;;;;;3.20;1.40;;;;;;;;;;4982416;28;20034;-79
2022/12/31 09:16:55;;;;;;;1.38;0.70;;;;;;;;;;4967313;28;20528;-79
2022/12/31 09:19:21;;;;;;;1.35;0.80;;;;;;;;;;4970104;28;20038;-79
2022/12/31 09:21:47;;;;;;;0.80;0.80;;;;;;;;;;4973840;28;20341;-79
2022/12/31 09:24:14;;;;;;;1.38;0.93;;;;;;;;;;4971428;28;20029;-78
2022/12/31 09:26:39;;;;;;;1.38;1.00;;;;;;;;;;4968529;28;20031;-79
2022/12/31 09:29:16;;;;;;;2.75;1.23;;;;;;;;;;4970613;28;20045;-79
2022/12/31 09:32:11;;;;;;;1.73;0.90;;;;;;;;;;4973452;28;20513;-79
2022/12/31 09:34:50;;;;;;;2.03;1.10;;;;;;;;;;4973040;28;20031;-79
2022/12/31 09:37:34;;;;;;;1.20;0.93;;;;;;;;;;4977601;28;20033;-80
2022/12/31 09:40:16;;;;;;;2.47;1.08;;;;;;;;;;4973601;28;20023;-80
2022/12/31 09:43:08;;;;;;;0.80;0.50;;;;;;;;;;4976697;28;20125;-81
2022/12/31 09:46:11;;;;;;;1.02;0.77;;;;;;;;;;4983706;28;20035;-80
2022/12/31 09:48:39;;;;;;;2.25;0.93;;;;;;;;;;4973176;28;20027;-80
2022/12/31 09:51:23;;;;;;;4.35;2.53;;;;;;;;;;4973351;28;20035;-78
2022/12/31 09:53:54;;;;;;;3.10;2.05;;;;;;;;;;4973894;28;20045;-78
2022/12/31 09:56:20;;;;;;;4.05;1.27;;;;;;;;;;4976535;28;20477;-79
2022/12/31 09:59:04;;;;;;;2.15;0.80;;;;;;;;;;4973808;28;20114;-80
2022/12/31 10:01:44;;;;;;;2.97;1.83;;;;;;;;;;4975827;28;20034;-78
2022/12/31 10:04:51;;;;;;;1.60;0.98;;;;;;;;;;4972736;28;20034;-80
2022/12/31 10:07:35;;;;;;;1.08;0.50;;;;;;;;;;4977202;28;20030;-81
2022/12/31 10:11:05;;;;;;;2.30;0.95;;;;;;;;;;4967215;28;20035;-78
2022/12/31 10:13:38;;;;;;;3.03;1.13;;;;;;;;;;4945031;29;20560;-78
2022/12/31 10:16:39;;;;;;;4.10;0.90;;;;;;;;;;4966629;28;20031;-80
2022/12/31 10:19:35;;;;;;;1.25;1.00;;;;;;;;;;4970582;28;20385;-79
2022/12/31 10:22:17;;;;;;;0.82;0.70;;;;;;;;;;4986794;28;20486;-78
2022/12/31 10:25:17;;;;;;;0.77;0.50;;;;;;;;;;4973404;28;20045;-78
2022/12/31 10:28:20;;;;;;;1.83;1.13;;;;;;;;;;4966227;28;20113;-78
2022/12/31 10:31:20;;;;;;;2.28;1.20;;;;;;;;;;4984837;28;20390;-78
2022/12/31 10:34:07;;;;;;;3.03;1.55;;;;;;;;;;4963383;28;20117;-79
2022/12/31 10:36:56;;;;;;;1.77;1.02;;;;;;;;;;4968498;28;20034;-78
2022/12/31 10:39:37;;;;;;;4.70;1.38;;;;;;;;;;4974804;28;20031;-79
2022/12/31 10:42:24;;;;;;;4.05;2.67;;;;;;;;;;4985227;28;20035;-79
2022/12/31 10:45:15;;;;;;;4.75;3.15;;;;;;;;;;4969215;28;20031;-77
2022/12/31 10:47:40;;;;;;;5.63;1.60;;;;;;;;;;4973488;28;20034;-77
2022/12/31 10:50:36;;;;;;;1.42;0.80;;;;;;;;;;4972906;28;20035;-77
2022/12/31 10:53:43;;;;;;;3.70;1.35;;;;;;;;;;4973297;28;20031;-77
2022/12/31 10:56:29;;;;;;;2.50;1.30;;;;;;;;;;4971954;28;20039;-79
2022/12/31 10:59:07;;;;;;;1.10;0.90;;;;;;;;;;4990069;28;20029;-79
2022/12/31 11:01:49;;;;;;;3.22;1.98;;;;;;;;;;4977625;28;20131;-78
2022/12/31 11:04:35;;;;;;;1.13;1.02;;;;;;;;;;4966837;28;20026;-78
2022/12/31 11:07:29;;;;;;;2.10;1.65;;;;;;;;;;4982759;28;20018;-79
2022/12/31 11:10:36;;;;;;;1.63;1.30;;;;;;;;;;4974247;28;20051;-79
2022/12/31 11:13:17;;;;;;;3.22;1.40;;;;;;;;;;4969764;28;20039;-77
2022/12/31 11:16:12;;;;;;;2.10;1.10;;;;;;;;;;4972339;28;20031;-79
2022/12/31 11:19:14;;;;;;;2.15;0.93;;;;;;;;;;4972948;28;20030;-80
2022/12/31 11:21:51;;;;;;;1.67;0.70;;;;;;;;;;4974643;28;20030;-78
2022/12/31 11:24:21;;;;;;;1.50;0.80;;;;;;;;;;4970895;28;20031;-79
2022/12/31 11:27:07;;;;;;;2.30;1.42;;;;;;;;;;4974945;28;20090;-79
2022/12/31 11:29:57;;;;;;;1.60;0.70;;;;;;;;;;4974485;28;20327;-79
2022/12/31 11:32:43;;;;;;;1.17;0.50;;;;;;;;;;4970672;28;20117;-78
2022/12/31 11:35:34;;;;;;;1.60;0.80;;;;;;;;;;4974307;28;20030;-79
2022/12/31 11:38:20;;;;;;;1.42;0.95;;;;;;;;;;4966359;28;20035;-79
2022/12/31 11:41:15;;;;;;;1.75;0.45;;;;;;;;;;4971101;28;20036;-78
2022/12/31 11:44:02;;;;;;;5.15;1.10;;;;;;;;;;4974347;28;20041;-78
2022/12/31 11:46:50;;;;;;;1.15;0.50;;;;;;;;;;4990042;28;20046;-79
2022/12/31 11:49:21;;;;;;;0.73;0.45;;;;;;;;;;4982961;28;20524;-80
2022/12/31 11:52:18;;;;;;;0.60;0.50;;;;;;;;;;4972054;28;20039;-79
2022/12/31 11:55:21;;;;;;;3.25;1.20;;;;;;;;;;4961654;28;20319;-78
2022/12/31 11:57:51;;;;;;;2.22;0.95;;;;;;;;;;4974187;28;20042;-80
2022/12/31 12:00:19;;;;;;;0.95;0.55;;;;;;;;;;4974032;28;20030;-78
2022/12/31 12:02:56;;;;;;;1.00;0.60;;;;;;;;;;4971840;28;20081;-78
2022/12/31 12:05:25;;;;;;;1.38;0.50;;;;;;;;;;4973465;28;20026;-79
2022/12/31 12:07:53;;;;;;;1.02;0.40;;;;;;;;;;4971563;28;20437;-78
2022/12/31 12:10:24;;;;;;;1.50;0.57;;;;;;;;;;4968246;28;20042;-79
2022/12/31 12:12:54;;;;;;;1.67;0.50;;;;;;;;;;4972201;28;20038;-79
2022/12/31 12:15:24;;;;;;;9.38;1.90;;;;;;;;;;4971570;28;20034;-77
2022/12/31 12:17:55;;;;;;;2.72;1.08;;;;;;;;;;4963914;28;20038;-78
2022/12/31 12:20:31;;;;;;;0.90;0.50;;;;;;;;;;4972760;28;20031;-79
2022/12/31 12:22:59;;;;;;;0.65;0.50;;;;;;;;;;4969424;28;20115;-78
2022/12/31 12:25:35;;;;;;;1.10;0.60;;;;;;;;;;4986946;28;20465;-79
2022/12/31 12:28:29;;;;;;;2.40;0.85;;;;;;;;;;4966603;28;20081;-80
2022/12/31 12:30:58;;;;;;;1.95;0.80;;;;;;;;;;4970498;28;20054;-80
2022/12/31 12:33:24;;;;;;;1.40;0.80;;;;;;;;;;4967827;28;20077;-77
2022/12/31 12:35:49;;;;;;;1.17;0.68;;;;;;;;;;4975247;28;20047;-77
2022/12/31 12:38:24;;;;;;;2.83;0.90;;;;;;;;;;4976227;28;20254;-77
2022/12/31 12:40:53;;;;;;;5.68;2.17;;;;;;;;;;4974094;28;20030;-78
2022/12/31 12:43:25;;;;;;;3.95;1.15;;;;;;;;;;4971100;28;20046;-78
2022/12/31 12:45:53;;;;;;;3.55;1.70;;;;;;;;;;4975654;28;20042;-79
2022/12/31 12:48:31;;;;;;;1.20;0.90;;;;;;;;;;4973995;28;20041;-78
2022/12/31 12:50:58;;;;;;;2.13;0.70;;;;;;;;;;4989698;28;20036;-80
2022/12/31 12:53:38;;;;;;;2.20;0.70;;;;;;;;;;4974909;28;20039;-78
2022/12/31 12:56:03;;;;;;;;;;;;;;;;;;4989862;28;20070;-78
2022/12/31 12:58:44;;;;;;;1.60;0.95;;;;;;;;;;4978023;28;19918;-77
2022/12/31 13:01:25;;;;;;;1.55;1.10;;;;;;;;;;4976179;28;20397;-76
2022/12/31 13:04:07;;;;;;;5.75;2.30;;;;;;;;;;4978253;28;20057;-79
2022/12/31 13:07:04;;;;;;;1.45;1.00;;;;;;;;;;4987893;28;20375;-78
2022/12/31 13:09:44;;;;;;;0.80;0.60;;;;;;;;;;4969132;28;20478;-79
2022/12/31 13:12:31;;;;;;;1.58;0.70;;;;;;;;;;4975551;28;20026;-79
2022/12/31 13:15:12;;;;;;;1.85;0.70;;;;;;;;;;4973791;28;20035;-77
2022/12/31 13:18:17;;;;;;;2.95;1.42;;;;;;;;;;4991135;28;20038;-78
2022/12/31 13:20:56;;;;;;;1.27;1.00;;;;;;;;;;4990757;28;20524;-79
2022/12/31 13:23:25;;;;;;;2.17;0.90;;;;;;;;;;4972966;28;20390;-78
2022/12/31 13:25:50;;;;;;;2.13;0.63;;;;;;;;;;4972445;28;20023;-78
2022/12/31 13:28:18;;;;;;;1.45;0.65;;;;;;;;;;4970894;28;20035;-77
2022/12/31 13:30:48;;;;;;;0.82;0.70;;;;;;;;;;4972774;28;20033;-77
2022/12/31 13:33:38;;;;;;;1.67;0.80;;;;;;;;;;4975060;28;20041;-77
2022/12/31 13:36:07;;;;;;;2.08;1.10;;;;;;;;;;4989378;28;20031;-79
2022/12/31 13:38:33;;;;;;;;;;;;;;;;;;4974165;28;20158;-78
2022/12/31 13:41:12;;;;;;;1.08;0.70;;;;;;;;;;4965360;28;19953;-77
2022/12/31 13:43:44;;;;;;;1.48;0.80;;;;;;;;;;4972472;28;20512;-78
2022/12/31 13:46:29;;;;;;;0.50;0.50;;;;;;;;;;4971374;28;20038;-77
2022/12/31 13:49:00;;;;;;;1.80;0.57;;;;;;;;;;4971222;28;20027;-79
2022/12/31 13:51:49;;;;;;;0.60;0.57;;;;;;;;;;4975548;28;20146;-77
2022/12/31 13:54:14;;;;;;;2.42;0.75;;;;;;;;;;4972472;28;20118;-78
2022/12/31 13:56:44;;;;;;;1.73;0.70;;;;;;;;;;4973359;28;20067;-77
2022/12/31 13:59:17;;;;;;;1.02;0.50;;;;;;;;;;4986752;28;20485;-77
2022/12/31 14:01:51;;;;;;;0.52;0.50;;;;;;;;;;4973885;28;20464;-76
2022/12/31 14:04:33;;;;;;;1.05;0.50;;;;;;;;;;4977033;28;20026;-76
2022/12/31 14:07:05;;;;;;;1.17;0.50;;;;;;;;;;4970741;28;20105;-77
2022/12/31 14:09:33;;;;;;;1.50;1.05;;;;;;;;;;4971583;28;20037;-77
2022/12/31 14:12:17;;;;;;;2.70;0.90;;;;;;;;;;4965283;28;20125;-77
2022/12/31 14:15:09;;;;;;;1.33;0.90;;;;;;;;;;4969679;28;20518;-77
2022/12/31 14:17:35;;;;;;;1.00;0.70;;;;;;;;;;4978380;28;20027;-77
2022/12/31 14:20:27;;;;;;;2.15;1.10;;;;;;;;;;4978017;28;20030;-78
2022/12/31 14:23:30;;;;;;;1.77;1.25;;;;;;;;;;4996916;28;20087;-77
2022/12/31 14:26:19;;;;;;;2.92;1.23;;;;;;;;;;4990345;28;20063;-76
2022/12/31 14:28:52;;;;;;;;;;;;;;;;;;4986317;28;20109;-78
2022/12/31 14:31:48;;;;;;;2.20;0.80;;;;;;;;;;4973138;28;20286;-77
2022/12/31 14:34:32;;;;;;;1.83;0.90;;;;;;;;;;4974974;28;20059;-76
2022/12/31 14:38:05;;;;;;;1.83;1.13;;;;;;;;;;4969629;28;20374;-79
2022/12/31 14:40:44;;;;;;;4.50;2.80;;;;;;;;;;4874713;29;20543;-77
2022/12/31 14:43:47;;;;;;;3.20;1.60;;;;;;;;;;4959107;28;20489;-77
2022/12/31 14:46:39;;;;;;;2.20;1.20;;;;;;;;;;4984581;28;20063;-77
2022/12/31 14:49:11;;;;;;;0.68;0.65;;;;;;;;;;4974080;28;20117;-75
2022/12/31 14:51:37;;;;;;;1.73;0.80;;;;;;;;;;4975103;28;20198;-78
2022/12/31 14:54:03;;;;;;;2.20;1.50;;;;;;;;;;4985113;28;20406;-78
2022/12/31 14:56:36;;;;;;;1.67;1.30;;;;;;;;;;4990074;28;20035;-77
2022/12/31 14:59:02;;;;;;;1.98;1.05;;;;;;;;;;4973709;28;20027;-78
2022/12/31 15:01:28;;;;;;;0.98;0.60;;;;;;;;;;4975564;28;20034;-79
2022/12/31 15:03:56;;;;;;;1.75;0.80;;;;;;;;;;4990026;28;20057;-77
2022/12/31 15:06:22;;;;;;;1.58;1.00;;;;;;;;;;4989274;28;20023;-79
2022/12/31 15:09:28;;;;;;;1.13;0.88;;;;;;;;;;4974147;28;20421;-79
2022/12/31 15:12:06;;;;;;;1.48;1.00;;;;;;;;;;4971939;28;20023;-79
2022/12/31 15:14:56;;;;;;;2.53;1.75;;;;;;;;;;4988219;28;20035;-78
2022/12/31 15:17:46;;;;;;;1.42;1.10;;;;;;;;;;4982394;28;20026;-77
2022/12/31 15:20:37;;;;;;;1.40;0.98;;;;;;;;;;4969107;28;20065;-77
2022/12/31 15:23:13;;;;;;;1.15;0.88;;;;;;;;;;4970959;28;20482;-78
2022/12/31 15:25:44;;;;;;;1.92;1.20;;;;;;;;;;4970245;28;20118;-78
2022/12/31 15:28:33;;;;;;;1.55;1.20;;;;;;;;;;4966499;28;20038;-77
2022/12/31 15:31:16;;;;;;;2.40;1.20;;;;;;;;;;4970533;28;20492;-78
2022/12/31 15:34:23;;;;;;;1.45;1.10;;;;;;;;;;4974421;28;20047;-79
2022/12/31 15:36:54;;;;;;;0.95;0.77;;;;;;;;;;4983322;28;20039;-77
2022/12/31 15:39:25;;;;;;;2.13;0.95;;;;;;;;;;4970776;28;20094;-77
2022/12/31 15:41:52;;;;;;;2.22;1.17;;;;;;;;;;4969166;28;20031;-78
2022/12/31 15:44:49;;;;;;;1.35;0.82;;;;;;;;;;4973221;28;20482;-77
2022/12/31 15:47:27;;;;;;;2.15;0.80;;;;;;;;;;4974631;28;20042;-78